createdAt,value
2019-03-22T00:02:12.856Z,12.68
2019-03-22T00:04:43.499Z,12.82
2019-03-22T00:07:14.138Z,12.82
2019-03-22T00:09:44.736Z,12.54
2019-03-22T00:12:15.330Z,12.37
2019-03-22T00:14:45.946Z,12.73
2019-03-22T00:17:16.540Z,12.73
2019-03-22T00:19:47.186Z,12.63
2019-03-22T00:22:17.764Z,12.82
2019-03-22T00:24:48.380Z,12.66
2019-03-22T00:27:19.120Z,12.64
2019-03-22T00:29:49.747Z,12.53
2019-03-22T00:32:20.354Z,12.48
2019-03-22T00:34:50.952Z,12.51
2019-03-22T00:37:21.568Z,12.35
2019-03-22T00:39:52.194Z,12.50
2019-03-22T00:42:25.170Z,12.45
2019-03-22T00:44:55.773Z,12.60
2019-03-22T00:47:26.351Z,12.62
2019-03-22T00:49:56.975Z,12.62
2019-03-22T00:52:27.554Z,12.55
2019-03-22T00:54:58.178Z,12.59
2019-03-22T00:57:29.004Z,12.59
2019-03-22T00:59:59.558Z,12.61
2019-03-22T01:02:30.114Z,12.50
2019-03-22T01:05:00.770Z,12.51
2019-03-22T01:07:31.332Z,12.58
2019-03-22T01:10:02.850Z,12.34
2019-03-22T01:12:33.488Z,12.50
2019-03-22T01:15:04.282Z,12.45
2019-03-22T01:17:34.851Z,12.56
2019-03-22T01:20:06.360Z,12.56
2019-03-22T01:22:36.947Z,12.41
2019-03-22T01:25:07.638Z,12.26
2019-03-22T01:27:40.832Z,12.46
2019-03-22T01:30:11.032Z,12.27
2019-03-22T01:32:41.623Z,12.16
2019-03-22T01:35:12.310Z,12.16
2019-03-22T01:37:42.901Z,12.23
2019-03-22T01:40:13.645Z,12.08
2019-03-22T01:42:44.321Z,11.94
2019-03-22T01:45:15.354Z,12.20
2019-03-22T01:47:45.914Z,12.19
2019-03-22T01:50:16.570Z,12.27
2019-03-22T01:52:47.200Z,12.27
2019-03-22T01:55:17.815Z,12.07
2019-03-22T01:57:53.704Z,12.23
2019-03-22T02:00:20.884Z,12.23
2019-03-22T02:02:51.484Z,12.04
2019-03-22T02:05:22.122Z,12.15
2019-03-22T02:07:52.722Z,12.13
2019-03-22T02:10:23.342Z,12.11
2019-03-22T02:12:53.924Z,12.01
2019-03-22T02:15:24.536Z,12.20
2019-03-22T02:17:55.182Z,12.24
2019-03-22T02:20:25.800Z,12.24
2019-03-22T02:22:56.474Z,12.39
2019-03-22T02:25:27.077Z,11.98
2019-03-22T02:28:04.225Z,12.18
2019-03-22T02:30:29.999Z,12.08
2019-03-22T02:33:00.573Z,11.94
2019-03-22T02:35:31.173Z,11.83
2019-03-22T02:38:01.758Z,11.83
2019-03-22T02:40:32.401Z,11.83
2019-03-22T02:43:03.004Z,11.72
2019-03-22T02:45:33.614Z,11.73
2019-03-22T02:48:04.321Z,11.93
2019-03-22T02:50:34.958Z,11.84
2019-03-22T02:53:05.548Z,11.79
2019-03-22T02:55:36.219Z,11.87
2019-03-22T02:58:19.893Z,12.02
2019-03-22T03:00:39.317Z,12.10
2019-03-22T03:03:09.981Z,12.02
2019-03-22T03:05:40.628Z,11.77
2019-03-22T03:08:11.222Z,11.86
2019-03-22T03:10:41.844Z,11.93
2019-03-22T03:13:12.423Z,11.97
2019-03-22T03:15:43.045Z,11.77
2019-03-22T03:18:13.683Z,12.03
2019-03-22T03:20:44.338Z,12.03
2019-03-22T03:23:14.884Z,12.02
2019-03-22T03:25:45.494Z,11.92
2019-03-22T03:28:16.249Z,11.92
2019-03-22T03:30:46.868Z,12.01
2019-03-22T03:33:17.534Z,11.95
2019-03-22T03:35:48.103Z,11.83
2019-03-22T03:38:18.753Z,11.83
2019-03-22T03:40:49.388Z,11.91
2019-03-22T03:43:19.977Z,11.87
2019-03-22T03:45:50.678Z,12.07
2019-03-22T03:48:21.286Z,11.82
2019-03-22T03:50:51.950Z,12.05
2019-03-22T03:53:22.545Z,12.00
2019-03-22T03:55:53.194Z,11.89
2019-03-22T03:58:23.773Z,11.82
2019-03-22T04:00:54.424Z,11.82
2019-03-22T04:03:25.127Z,11.80
2019-03-22T04:05:55.718Z,11.72
2019-03-22T04:08:26.314Z,11.89
2019-03-22T04:10:56.925Z,11.67
2019-03-22T04:13:27.511Z,11.82
2019-03-22T04:15:58.141Z,11.75
2019-03-22T04:18:28.739Z,11.80
2019-03-22T04:20:59.340Z,11.78
2019-03-22T04:23:30.009Z,11.81
2019-03-22T04:26:00.630Z,11.96
2019-03-22T04:28:31.187Z,11.70
2019-03-22T04:31:01.876Z,11.90
2019-03-22T04:33:32.512Z,11.63
2019-03-22T04:36:03.165Z,11.88
2019-03-22T04:38:33.748Z,11.95
2019-03-22T04:41:04.360Z,11.83
2019-03-22T04:43:34.937Z,11.70
2019-03-22T04:46:06.184Z,11.82
2019-03-22T04:48:38.083Z,11.55
2019-03-22T04:51:09.718Z,11.66
2019-03-22T04:53:46.938Z,11.76
2019-03-22T04:56:18.974Z,11.85
2019-03-22T04:58:51.447Z,11.92
2019-03-22T05:01:23.285Z,11.81
2019-03-22T05:03:54.439Z,11.59
2019-03-22T05:06:25.263Z,11.81
2019-03-22T05:08:56.893Z,11.89
2019-03-22T05:11:28.012Z,11.93
2019-03-22T05:13:59.568Z,11.83
2019-03-22T05:16:30.767Z,11.90
2019-03-22T05:19:02.794Z,11.86
2019-03-22T05:21:33.820Z,11.79
2019-03-22T05:24:05.699Z,11.84
2019-03-22T05:26:37.808Z,11.88
2019-03-22T05:29:08.726Z,11.78
2019-03-22T05:31:58.693Z,11.94
2019-03-22T05:34:29.463Z,11.66
2019-03-22T05:37:00.130Z,11.65
2019-03-22T05:39:30.726Z,11.68
2019-03-22T05:42:03.282Z,11.78
2019-03-22T05:44:33.908Z,11.71
2019-03-22T05:47:04.491Z,11.70
2019-03-22T05:49:35.116Z,11.53
2019-03-22T05:52:05.861Z,11.48
2019-03-22T05:54:36.440Z,11.51
2019-03-22T05:57:13.434Z,11.40
2019-03-22T05:59:42.905Z,11.69
2019-03-22T06:02:11.906Z,11.76
2019-03-22T06:04:42.522Z,11.54
2019-03-22T06:07:13.198Z,11.55
2019-03-22T06:09:43.766Z,11.41
2019-03-22T06:12:14.368Z,11.62
2019-03-22T06:14:44.980Z,11.47
2019-03-22T06:17:15.600Z,11.44
2019-03-22T06:19:46.184Z,11.57
2019-03-22T06:22:16.816Z,11.73
2019-03-22T06:24:47.466Z,11.78
2019-03-22T06:27:18.098Z,11.70
2019-03-22T06:29:54.029Z,11.76
2019-03-22T06:32:21.055Z,11.45
2019-03-22T06:34:51.662Z,11.50
2019-03-22T06:37:22.263Z,11.57
2019-03-22T06:39:52.944Z,11.52
2019-03-22T06:42:23.514Z,11.43
2019-03-22T06:44:54.113Z,11.56
2019-03-22T06:47:24.670Z,11.49
2019-03-22T06:49:55.258Z,11.36
2019-03-22T06:52:25.846Z,11.43
2019-03-22T06:54:56.480Z,11.24
2019-03-22T06:57:27.090Z,11.26
2019-03-22T07:00:06.288Z,11.32
2019-03-22T07:02:30.040Z,11.31
2019-03-22T07:05:00.635Z,11.30
2019-03-22T07:07:31.237Z,11.40
2019-03-22T07:10:02.682Z,11.62
2019-03-22T07:12:33.264Z,11.82
2019-03-22T07:15:06.187Z,11.67
2019-03-22T07:17:36.750Z,11.73
2019-03-22T07:20:07.502Z,11.61
2019-03-22T07:22:38.084Z,11.57
2019-03-22T07:25:08.703Z,11.43
2019-03-22T07:27:39.277Z,11.38
2019-03-22T07:30:18.491Z,11.64
2019-03-22T07:32:42.273Z,11.71
2019-03-22T07:35:12.960Z,11.85
2019-03-22T07:37:43.539Z,11.91
2019-03-22T07:40:14.195Z,11.75
2019-03-22T07:42:44.805Z,11.91
2019-03-22T07:45:15.399Z,11.85
2019-03-22T07:47:45.961Z,11.59
2019-03-22T07:50:16.651Z,11.82
2019-03-22T07:52:47.197Z,11.64
2019-03-22T07:55:17.811Z,11.83
2019-03-22T07:57:48.372Z,11.85
2019-03-22T08:00:30.174Z,11.95
2019-03-22T08:02:51.291Z,12.00
2019-03-22T08:05:21.905Z,11.99
2019-03-22T08:07:52.503Z,12.14
2019-03-22T08:10:23.147Z,12.20
2019-03-22T08:12:53.729Z,12.26
2019-03-22T08:15:32.205Z,12.32
2019-03-22T08:18:02.912Z,12.01
2019-03-22T08:20:33.488Z,12.05
2019-03-22T08:23:05.629Z,12.07
2019-03-22T08:25:36.239Z,11.83
2019-03-22T08:28:06.807Z,11.95
2019-03-22T08:30:42.986Z,12.14
2019-03-22T08:33:09.715Z,12.18
2019-03-22T08:35:40.367Z,12.10
2019-03-22T08:38:11.090Z,12.09
2019-03-22T08:40:42.182Z,12.16
2019-03-22T08:43:12.826Z,12.23
2019-03-22T08:45:43.538Z,12.11
2019-03-22T08:48:14.189Z,12.19
2019-03-22T08:50:44.947Z,12.11
2019-03-22T08:53:33.347Z,11.84
2019-03-22T08:56:04.020Z,12.27
2019-03-22T08:58:34.799Z,12.15
2019-03-22T09:01:05.845Z,12.36
2019-03-22T09:03:36.518Z,12.14
2019-03-22T09:06:07.975Z,12.36
2019-03-22T09:08:38.741Z,12.36
2019-03-22T09:11:09.423Z,12.12
2019-03-22T09:13:40.085Z,12.46
2019-03-22T09:16:10.753Z,12.51
2019-03-22T09:18:41.428Z,12.53
2019-03-22T09:21:12.927Z,12.42
2019-03-22T09:23:43.571Z,12.72
2019-03-22T09:26:14.247Z,12.70
2019-03-22T09:28:45.010Z,12.50
2019-03-22T09:31:15.618Z,12.35
2019-03-22T09:33:46.146Z,12.74
2019-03-22T09:36:16.724Z,12.71
2019-03-22T09:38:47.319Z,12.71
2019-03-22T09:41:18.006Z,12.80
2019-03-22T09:43:48.580Z,12.82
2019-03-22T09:46:19.246Z,12.92
2019-03-22T09:48:49.858Z,12.92
2019-03-22T09:51:20.503Z,12.83
2019-03-22T09:53:51.036Z,12.78
2019-03-22T09:56:21.608Z,12.82
2019-03-22T09:58:52.180Z,13.00
2019-03-22T10:01:24.035Z,13.07
2019-03-22T10:03:55.044Z,13.08
2019-03-22T10:06:25.620Z,13.10
2019-03-22T10:08:56.161Z,13.03
2019-03-22T10:11:26.769Z,13.03
2019-03-22T10:13:57.462Z,13.20
2019-03-22T10:16:28.098Z,13.19
2019-03-22T10:18:58.779Z,13.12
2019-03-22T10:21:29.420Z,13.17
2019-03-22T10:24:00.109Z,13.25
2019-03-22T10:26:30.751Z,13.26
2019-03-22T10:29:01.305Z,13.14
2019-03-22T10:31:37.029Z,13.32
2019-03-22T10:34:04.242Z,13.31
2019-03-22T10:36:34.927Z,13.40
2019-03-22T10:39:08.509Z,13.47
2019-03-22T10:41:39.104Z,13.60
2019-03-22T10:44:09.845Z,13.62
2019-03-22T10:46:40.539Z,13.66
2019-03-22T10:49:12.143Z,13.75
2019-03-22T10:51:55.818Z,13.74
2019-03-22T10:54:15.060Z,13.78
2019-03-22T10:56:45.648Z,13.77
2019-03-22T10:59:16.265Z,13.89
2019-03-22T11:02:02.234Z,13.96
2019-03-22T11:04:19.253Z,14.21
2019-03-22T11:06:49.846Z,14.15
2019-03-22T11:09:20.556Z,14.08
2019-03-22T11:11:51.908Z,14.19
2019-03-22T11:14:22.623Z,14.19
2019-03-22T11:16:53.267Z,14.04
2019-03-22T11:19:23.950Z,14.28
2019-03-22T11:21:54.509Z,14.26
2019-03-22T11:24:25.142Z,14.40
2019-03-22T11:26:55.749Z,14.42
2019-03-22T11:29:26.390Z,14.30
2019-03-22T11:31:57.093Z,14.33
2019-03-22T11:34:27.696Z,14.43
2019-03-22T11:36:58.385Z,14.24
2019-03-22T11:39:28.987Z,14.56
2019-03-22T11:41:59.560Z,14.52
2019-03-22T11:44:30.162Z,14.62
2019-03-22T11:47:00.751Z,14.68
2019-03-22T11:49:31.367Z,14.73
2019-03-22T11:52:01.920Z,14.57
2019-03-22T11:54:32.504Z,14.71
2019-03-22T11:57:03.186Z,14.69
2019-03-22T11:59:33.800Z,14.96
2019-03-22T12:02:06.218Z,14.65
2019-03-22T12:04:36.860Z,14.68
2019-03-22T12:07:07.452Z,14.68
2019-03-22T12:09:38.075Z,14.82
2019-03-22T12:12:08.658Z,14.91
2019-03-22T12:14:39.272Z,14.93
2019-03-22T12:17:09.882Z,14.94
2019-03-22T12:19:40.530Z,14.99
2019-03-22T12:22:11.136Z,15.11
2019-03-22T12:24:41.839Z,15.16
2019-03-22T12:27:12.575Z,15.22
2019-03-22T12:29:43.274Z,15.19
2019-03-22T12:32:13.892Z,15.26
2019-03-22T12:34:44.499Z,15.23
2019-03-22T12:37:15.119Z,15.31
2019-03-22T12:39:45.895Z,15.32
2019-03-22T12:42:16.452Z,15.32
2019-03-22T12:44:47.089Z,15.59
2019-03-22T12:47:17.731Z,15.52
2019-03-22T12:49:48.368Z,15.42
2019-03-22T12:52:19.069Z,15.46
2019-03-22T12:54:49.678Z,15.59
2019-03-22T12:57:20.325Z,15.60
2019-03-22T12:59:51.105Z,15.59
2019-03-22T13:02:21.731Z,15.77
2019-03-22T13:04:52.384Z,15.73
2019-03-22T13:07:23.027Z,15.67
2019-03-22T13:09:53.780Z,15.77
2019-03-22T13:12:24.389Z,15.74
2019-03-22T13:14:56.683Z,15.86
2019-03-22T13:17:27.478Z,15.85
2019-03-22T13:19:58.106Z,15.78
2019-03-22T13:22:28.691Z,15.82
2019-03-22T13:24:59.319Z,15.88
2019-03-22T13:27:29.973Z,15.79
2019-03-22T13:30:00.573Z,15.96
2019-03-22T13:32:31.197Z,16.04
2019-03-22T13:35:01.770Z,15.99
2019-03-22T13:37:32.344Z,15.99
2019-03-22T13:40:03.022Z,16.15
2019-03-22T13:42:33.572Z,16.02
2019-03-22T13:45:04.591Z,16.06
2019-03-22T13:47:35.348Z,16.09
2019-03-22T13:50:07.772Z,16.21
2019-03-22T13:52:38.431Z,16.30
2019-03-22T13:55:09.209Z,16.23
2019-03-22T13:57:39.785Z,16.28
2019-03-22T14:00:10.599Z,16.25
2019-03-22T14:02:41.250Z,16.40
2019-03-22T14:05:11.844Z,16.40
2019-03-22T14:07:42.460Z,16.28
2019-03-22T14:10:21.688Z,16.42
2019-03-22T14:12:52.315Z,16.43
2019-03-22T14:15:22.968Z,16.36
2019-03-22T14:17:53.517Z,16.46
2019-03-22T14:20:24.105Z,16.35
2019-03-22T14:22:54.680Z,16.42
2019-03-22T14:25:25.288Z,16.42
2019-03-22T14:27:55.861Z,16.38
2019-03-22T14:30:26.498Z,16.45
2019-03-22T14:32:57.079Z,16.55
2019-03-22T14:35:28.582Z,16.53
2019-03-22T14:37:59.345Z,16.49
2019-03-22T14:40:30.008Z,16.44
2019-03-22T14:43:00.579Z,16.45
2019-03-22T14:45:31.187Z,16.59
2019-03-22T14:48:01.759Z,16.46
2019-03-22T14:50:32.324Z,16.61
2019-03-22T14:53:02.911Z,16.60
2019-03-22T14:55:33.523Z,16.58
2019-03-22T14:58:04.097Z,16.66
2019-03-22T15:00:34.646Z,16.70
2019-03-22T15:03:24.124Z,16.68
2019-03-22T15:05:56.060Z,16.68
2019-03-22T15:08:26.621Z,16.67
2019-03-22T15:10:57.203Z,16.65
2019-03-22T15:13:45.768Z,16.67
2019-03-22T15:16:44.180Z,16.71
2019-03-22T15:19:37.231Z,16.69
2019-03-22T15:22:25.363Z,16.76
2019-03-22T15:25:17.890Z,16.74
2019-03-22T15:28:10.613Z,16.73
2019-03-22T15:31:09.291Z,16.74
2019-03-22T15:33:48.316Z,16.76
2019-03-22T15:36:36.823Z,16.75
2019-03-22T15:42:04.273Z,16.76
2019-03-22T15:44:34.804Z,16.76
2019-03-22T15:47:05.426Z,16.82
2019-03-22T15:49:35.992Z,16.78
2019-03-22T15:52:06.568Z,16.72
2019-03-22T15:54:37.124Z,16.74
2019-03-22T15:57:07.832Z,16.74
2019-03-22T15:59:39.387Z,16.69
2019-03-22T16:02:10.141Z,16.60
2019-03-22T16:04:40.741Z,16.69
2019-03-22T16:07:11.345Z,16.70
2019-03-22T16:09:41.902Z,16.69
2019-03-22T16:12:12.560Z,16.73
2019-03-22T16:14:43.164Z,16.55
2019-03-22T16:17:13.845Z,16.62
2019-03-22T16:19:44.458Z,16.59
2019-03-22T16:22:15.014Z,16.53
2019-03-22T16:24:45.630Z,16.43
2019-03-22T16:27:16.175Z,16.39
2019-03-22T16:29:46.790Z,16.45
2019-03-22T16:32:17.358Z,16.44
2019-03-22T16:34:47.950Z,16.48
2019-03-22T16:37:18.513Z,16.32
2019-03-22T16:39:49.138Z,16.38
2019-03-22T16:42:19.724Z,16.30
2019-03-22T16:44:50.337Z,16.31
2019-03-22T16:47:20.900Z,16.31
2019-03-22T16:49:51.476Z,16.35
2019-03-22T16:52:22.010Z,16.25
2019-03-22T16:54:52.611Z,16.23
2019-03-22T16:57:23.200Z,16.29
2019-03-22T16:59:53.848Z,16.20
2019-03-22T17:02:24.432Z,15.98
2019-03-22T17:04:55.004Z,16.01
2019-03-22T17:07:25.557Z,16.02
2019-03-22T17:09:56.179Z,16.08
2019-03-22T17:12:26.802Z,16.04
2019-03-22T17:14:57.384Z,15.81
2019-03-22T17:17:27.933Z,16.01
2019-03-22T17:19:58.545Z,15.99
2019-03-22T17:22:29.107Z,15.89
2019-03-22T17:24:59.695Z,15.82
2019-03-22T17:27:30.261Z,15.79
2019-03-22T17:30:02.373Z,15.56
2019-03-22T17:32:32.979Z,15.63
2019-03-22T17:35:03.618Z,15.67
2019-03-22T17:37:34.225Z,15.68
2019-03-22T17:40:05.153Z,15.72
2019-03-22T17:42:35.801Z,15.73
2019-03-22T17:45:07.229Z,15.58
2019-03-22T17:47:37.836Z,15.64
2019-03-22T17:50:08.608Z,15.59
2019-03-22T17:52:39.263Z,15.59
2019-03-22T17:55:11.307Z,15.40
2019-03-22T17:57:41.907Z,15.47
2019-03-22T18:00:13.154Z,15.45
2019-03-22T18:02:43.803Z,15.45
2019-03-22T18:05:14.845Z,15.43
2019-03-22T18:07:45.454Z,15.31
2019-03-22T18:10:16.198Z,15.24
2019-03-22T18:12:46.813Z,15.26
2019-03-22T18:15:17.635Z,15.02
2019-03-22T18:17:48.246Z,15.01
2019-03-22T18:20:18.849Z,14.90
2019-03-22T18:22:49.540Z,14.97
2019-03-22T18:25:20.077Z,15.06
2019-03-22T18:27:50.757Z,15.13
2019-03-22T18:30:21.351Z,15.12
2019-03-22T18:32:51.983Z,15.05
2019-03-22T18:35:22.680Z,15.03
2019-03-22T18:37:53.304Z,14.81
2019-03-22T18:40:23.922Z,14.62
2019-03-22T18:42:54.531Z,14.69
2019-03-22T18:45:25.117Z,14.77
2019-03-22T18:47:55.714Z,14.53
2019-03-22T18:50:26.307Z,14.50
2019-03-22T18:52:56.909Z,14.56
2019-03-22T18:55:27.535Z,14.47
2019-03-22T18:57:58.243Z,14.38
2019-03-22T19:00:28.939Z,14.10
2019-03-22T19:02:59.714Z,14.18
2019-03-22T19:05:30.474Z,14.14
2019-03-22T19:08:05.754Z,14.15
2019-03-22T19:10:36.376Z,14.14
2019-03-22T19:13:07.884Z,14.31
2019-03-22T19:15:38.551Z,13.95
2019-03-22T19:18:09.230Z,14.09
2019-03-22T19:20:39.925Z,14.14
2019-03-22T19:23:10.699Z,14.09
2019-03-22T19:25:41.395Z,14.30
2019-03-22T19:28:12.132Z,14.38
2019-03-22T19:30:42.806Z,14.35
2019-03-22T19:33:13.472Z,14.35
2019-03-22T19:35:44.158Z,14.33
2019-03-22T19:38:14.812Z,14.37
2019-03-22T19:40:45.576Z,14.36
2019-03-22T19:43:16.365Z,14.17
2019-03-22T19:45:46.985Z,14.18
2019-03-22T19:48:17.689Z,14.32
2019-03-22T19:50:48.271Z,14.27
2019-03-22T19:53:18.896Z,14.31
2019-03-22T19:55:49.458Z,14.00
2019-03-22T19:58:20.059Z,14.20
2019-03-22T20:00:50.671Z,14.19
2019-03-22T20:03:21.932Z,14.19
2019-03-22T20:05:52.603Z,14.21
2019-03-22T20:08:23.269Z,14.09
2019-03-22T20:10:53.877Z,13.94
2019-03-22T20:13:24.524Z,14.06
2019-03-22T20:15:55.137Z,14.08
2019-03-22T20:18:25.743Z,13.99
2019-03-22T20:20:56.334Z,14.07
2019-03-22T20:23:26.926Z,14.03
2019-03-22T20:25:57.534Z,13.83
2019-03-22T20:28:28.130Z,13.92
2019-03-22T20:30:58.707Z,13.93
2019-03-22T20:33:29.314Z,13.79
2019-03-22T20:35:59.930Z,13.88
2019-03-22T20:38:30.533Z,13.83
2019-03-22T20:41:01.115Z,13.71
2019-03-22T20:43:31.751Z,13.57
2019-03-22T20:46:02.387Z,13.66
2019-03-22T20:48:32.978Z,13.60
2019-03-22T20:51:03.717Z,13.66
2019-03-22T20:53:34.285Z,13.59
2019-03-22T20:56:04.952Z,13.64
2019-03-22T20:58:35.645Z,13.50
2019-03-22T21:01:06.270Z,13.62
2019-03-22T21:03:36.904Z,13.55
2019-03-22T21:06:07.670Z,13.47
2019-03-22T21:08:38.288Z,13.57
2019-03-22T21:11:08.901Z,13.56
2019-03-22T21:13:39.470Z,13.37
2019-03-22T21:16:10.102Z,13.47
2019-03-22T21:18:40.709Z,13.33
2019-03-22T21:21:11.382Z,13.33
2019-03-22T21:23:41.984Z,13.23
2019-03-22T21:26:12.620Z,13.31
2019-03-22T21:28:43.199Z,13.14
2019-03-22T21:31:13.918Z,13.20
2019-03-22T21:33:44.502Z,13.19
2019-03-22T21:36:15.140Z,13.21
2019-03-22T21:38:45.790Z,13.22
2019-03-22T21:41:16.403Z,13.15
2019-03-22T21:43:47.023Z,13.15
2019-03-22T21:46:17.790Z,13.16
2019-03-22T21:48:48.477Z,13.20
2019-03-22T21:51:19.108Z,13.10
2019-03-22T21:53:49.727Z,12.97
2019-03-22T21:56:20.359Z,13.00
2019-03-22T21:58:50.994Z,12.91
2019-03-22T22:01:21.612Z,12.90
2019-03-22T22:03:52.280Z,12.89
2019-03-22T22:06:23.026Z,12.96
2019-03-22T22:08:53.618Z,12.81
2019-03-22T22:11:25.030Z,12.91
2019-03-22T22:13:55.669Z,12.80
2019-03-22T22:16:26.324Z,12.68
2019-03-22T22:18:57.040Z,12.71
2019-03-22T22:21:27.757Z,12.68
2019-03-22T22:23:58.459Z,12.75
2019-03-22T22:26:29.108Z,12.75
2019-03-22T22:28:59.750Z,12.72
2019-03-22T22:31:30.427Z,12.69
2019-03-22T22:34:01.132Z,12.65
2019-03-22T22:36:31.816Z,12.66
2019-03-22T22:39:02.458Z,12.61
2019-03-22T22:41:33.227Z,12.56
2019-03-22T22:44:03.830Z,12.40
2019-03-22T22:46:34.456Z,12.42
2019-03-22T22:49:05.162Z,12.46
2019-03-22T22:51:35.782Z,12.47
2019-03-22T22:54:06.396Z,12.46
2019-03-22T22:56:37.018Z,12.55
2019-03-22T22:59:07.746Z,12.55
2019-03-22T23:01:38.352Z,12.51
2019-03-22T23:04:09.000Z,12.31
2019-03-22T23:06:39.684Z,12.41
2019-03-22T23:09:10.915Z,12.30
2019-03-22T23:11:41.606Z,12.38
2019-03-22T23:14:12.251Z,12.33
2019-03-22T23:16:42.934Z,12.32
2019-03-22T23:19:13.487Z,12.26
2019-03-22T23:21:45.808Z,12.26
2019-03-22T23:24:15.628Z,12.39
2019-03-22T23:26:45.500Z,12.18
2019-03-22T23:29:15.321Z,12.24
2019-03-22T23:31:45.163Z,12.24
2019-03-22T23:34:14.961Z,12.22
2019-03-22T23:36:44.760Z,12.22
2019-03-22T23:39:14.585Z,12.02
2019-03-22T23:41:44.368Z,12.03
2019-03-22T23:44:14.186Z,12.03
2019-03-22T23:46:43.990Z,12.01
2019-03-22T23:49:13.854Z,12.16
2019-03-22T23:51:43.669Z,12.11
2019-03-22T23:54:13.483Z,12.19
2019-03-22T23:56:43.261Z,12.09
2019-03-22T23:59:13.092Z,12.09
